Time;durP1;ratioP1;P1;durP2;ratioP2;P2;SDS_P1;SDS_P2;PMS_P1;PMS_P2;Temp;Humidity;BMP_temperature;BMP_pressure;BME280_temperature;BME280_humidity;BME280_pressure;Samples;Min_cycle;Max_cycle;Signal;HPM_P1;HPM_P2
2024/01/02 00:00:41;;;;;;;0.15;0.15;;;11.50;99.90;;;;;;5010273;28;20045;-76
2024/01/02 00:03:08;;;;;;;0.55;0.20;;;11.60;99.90;;;;;;5009548;28;20049;-76
2024/01/02 00:05:36;;;;;;;0.40;0.30;;;11.60;99.90;;;;;;5042145;28;20548;-76
2024/01/02 00:08:04;;;;;;;0.17;0.17;;;11.60;99.90;;;;;;5008849;28;20084;-77
2024/01/02 00:10:31;;;;;;;0.25;0.10;;;11.60;99.90;;;;;;5025479;28;20686;-76
2024/01/02 00:12:58;;;;;;;0.52;0.32;;;11.70;99.90;;;;;;5041855;28;20057;-76
2024/01/02 00:15:25;;;;;;;0.20;0.20;;;11.70;99.90;;;;;;5025953;28;20598;-76
2024/01/02 00:17:52;;;;;;;0.20;0.20;;;11.70;99.90;;;;;;5009619;28;20053;-76
2024/01/02 00:20:20;;;;;;;0.20;0.20;;;11.70;99.90;;;;;;5025604;28;20047;-76
2024/01/02 00:22:47;;;;;;;0.32;0.20;;;11.70;99.90;;;;;;5041121;28;20053;-76
2024/01/02 00:25:15;;;;;;;0.20;0.20;;;11.80;99.90;;;;;;5038734;28;20045;-76
2024/01/02 00:27:41;;;;;;;0.20;0.20;;;11.80;99.90;;;;;;5005996;28;20106;-76
2024/01/02 00:30:10;;;;;;;0.20;0.20;;;11.80;99.90;;;;;;5025067;28;20098;-76
2024/01/02 00:32:38;;;;;;;0.28;0.28;;;11.80;99.90;;;;;;5041838;28;20103;-76
2024/01/02 00:35:08;;;;;;;0.10;0.10;;;11.90;99.90;;;;;;5041506;28;20091;-76
2024/01/02 00:37:35;;;;;;;0.22;0.20;;;11.90;99.90;;;;;;5039039;28;20053;-76
2024/01/02 00:40:02;;;;;;;0.20;0.20;;;11.90;99.90;;;;;;5017906;28;20058;-76
2024/01/02 00:42:30;;;;;;;0.22;0.20;;;11.90;99.90;;;;;;4990254;28;20053;-76
2024/01/02 00:44:59;;;;;;;0.57;0.20;;;12.00;99.90;;;;;;5006800;28;20235;-76
2024/01/02 00:47:26;;;;;;;0.30;0.10;;;12.00;99.90;;;;;;5026025;28;20050;-76
2024/01/02 00:49:53;;;;;;;0.32;0.30;;;12.10;99.90;;;;;;5025440;28;20128;-76
2024/01/02 00:52:20;;;;;;;0.20;0.20;;;12.10;99.90;;;;;;5009600;28;20152;-76
2024/01/02 00:54:49;;;;;;;0.20;0.20;;;12.20;99.90;;;;;;5009078;28;20045;-76
2024/01/02 00:57:16;;;;;;;0.57;0.10;;;12.20;99.90;;;;;;5010214;28;20140;-76
2024/01/02 00:59:44;;;;;;;1.08;0.35;;;12.20;39.70;;;;;;5027023;28;20049;-76
2024/01/02 01:02:11;;;;;;;0.80;0.20;;;12.30;1.00;;;;;;5024501;28;20108;-75
2024/01/02 01:04:42;;;;;;;0.40;0.20;;;12.30;1.00;;;;;;5006349;28;20279;-76
2024/01/02 01:07:10;;;;;;;1.10;0.20;;;12.30;99.90;;;;;;5025395;28;20136;-76
2024/01/02 01:09:37;;;;;;;0.47;0.20;;;12.40;99.90;;;;;;4992681;28;20071;-76
2024/01/02 01:12:05;;;;;;;0.40;0.30;;;12.40;99.90;;;;;;4993117;28;20115;-76
2024/01/02 01:14:32;;;;;;;0.20;0.20;;;12.40;99.90;;;;;;5008664;28;20119;-76
2024/01/02 01:16:59;;;;;;;0.88;0.22;;;12.40;99.90;;;;;;4992762;28;20488;-76
2024/01/02 01:19:26;;;;;;;0.10;0.10;;;12.40;99.90;;;;;;5009395;28;20133;-76
2024/01/02 01:21:54;;;;;;;0.28;0.20;;;12.40;99.90;;;;;;5026234;28;20045;-76
2024/01/02 01:24:24;;;;;;;0.98;0.30;;;12.30;1.00;;;;;;5028992;28;20053;-76
2024/01/02 01:26:52;;;;;;;1.13;0.32;;;12.30;99.70;;;;;;5008803;28;20087;-76
2024/01/02 01:29:20;;;;;;;0.20;0.20;;;12.30;99.90;;;;;;5009297;28;20057;-76
2024/01/02 01:31:47;;;;;;;0.40;0.30;;;12.30;99.90;;;;;;4993080;28;20103;-76
2024/01/02 01:34:15;;;;;;;0.57;0.32;;;12.30;99.90;;;;;;5008609;28;20064;-76
2024/01/02 01:36:42;;;;;;;0.73;0.30;;;12.30;99.90;;;;;;5007422;28;20136;-76
2024/01/02 01:39:10;;;;;;;0.43;0.20;;;12.30;99.90;;;;;;4992180;28;20183;-76
2024/01/02 01:41:37;;;;;;;2.03;0.40;;;12.30;99.90;;;;;;5009044;28;20057;-76
2024/01/02 01:44:04;;;;;;;0.32;0.20;;;12.20;99.90;;;;;;4997040;28;20049;-76
2024/01/02 01:46:36;;;;;;;0.70;0.30;;;12.30;99.90;;;;;;5027104;28;20053;-75
2024/01/02 01:49:03;;;;;;;0.60;0.32;;;12.20;99.90;;;;;;5012679;28;20071;-76
2024/01/02 01:51:30;;;;;;;2.65;0.50;;;12.20;99.90;;;;;;5027800;28;20797;-75
2024/01/02 01:53:59;;;;;;;0.68;0.40;;;12.20;99.90;;;;;;5008301;28;20130;-75
2024/01/02 01:56:25;;;;;;;0.77;0.32;;;12.10;99.90;;;;;;5024434;28;20146;-75
2024/01/02 01:58:53;;;;;;;0.85;0.30;;;12.10;99.90;;;;;;5006641;28;20456;-76
2024/01/02 02:01:24;;;;;;;0.85;0.30;;;12.10;99.90;;;;;;5033555;28;20045;-75
2024/01/02 02:03:51;;;;;;;0.70;0.30;;;12.10;99.90;;;;;;5028301;28;20060;-75
2024/01/02 02:06:18;;;;;;;0.20;0.20;;;12.10;99.90;;;;;;5000670;28;20080;-75
2024/01/02 02:08:46;;;;;;;0.75;0.38;;;12.10;99.90;;;;;;5006348;28;20046;-75
2024/01/02 02:11:13;;;;;;;1.83;0.60;;;12.10;99.90;;;;;;5024470;28;20049;-75
2024/01/02 02:13:40;;;;;;;0.65;0.30;;;12.10;18.60;;;;;;5010546;28;20049;-76
2024/01/02 02:16:07;;;;;;;1.08;0.45;;;12.10;1.00;;;;;;5011154;28;20064;-75
2024/01/02 02:18:34;;;;;;;1.13;0.47;;;12.10;1.00;;;;;;5027843;28;20064;-75
2024/01/02 02:21:02;;;;;;;0.80;0.30;;;12.10;1.00;;;;;;5043439;28;20759;-75
2024/01/02 02:23:30;;;;;;;1.40;0.82;;;12.10;99.90;;;;;;5038667;28;20056;-76
2024/01/02 02:25:58;;;;;;;1.13;0.45;;;12.10;99.90;;;;;;5008243;28;20045;-75
2024/01/02 02:28:25;;;;;;;0.93;0.40;;;12.00;1.00;;;;;;5007212;28;20637;-76
2024/01/02 02:30:52;;;;;;;1.65;0.45;;;12.00;1.00;;;;;;5032670;28;20384;-76
2024/01/02 02:33:19;;;;;;;0.73;0.30;;;12.00;1.00;;;;;;5044434;28;20049;-75
2024/01/02 02:35:46;;;;;;;0.47;0.35;;;12.00;1.00;;;;;;5027975;28;20503;-76
2024/01/02 02:38:13;;;;;;;0.20;0.20;;;12.00;1.00;;;;;;5043996;28;20106;-75
2024/01/02 02:40:40;;;;;;;0.32;0.28;;;12.00;1.00;;;;;;5037427;28;20057;-75
2024/01/02 02:43:07;;;;;;;2.03;1.00;;;12.00;99.90;;;;;;5000576;28;20053;-75
2024/01/02 02:45:35;;;;;;;1.58;0.60;;;12.10;99.90;;;;;;5029872;28;20045;-75
2024/01/02 02:48:02;;;;;;;0.73;0.40;;;12.00;99.90;;;;;;5029715;28;20057;-75
2024/01/02 02:50:29;;;;;;;0.50;0.38;;;12.00;99.90;;;;;;5045766;28;20049;-75
2024/01/02 02:52:56;;;;;;;1.58;0.60;;;12.00;99.90;;;;;;5028313;28;20053;-75
2024/01/02 02:55:23;;;;;;;0.50;0.32;;;12.00;99.90;;;;;;5045840;28;20055;-76
2024/01/02 02:57:50;;;;;;;0.43;0.30;;;11.90;99.90;;;;;;5028887;28;20076;-76
2024/01/02 03:00:17;;;;;;;0.25;0.22;;;11.90;54.10;;;;;;5045435;28;20550;-76
2024/01/02 03:02:44;;;;;;;0.80;0.40;;;11.90;99.90;;;;;;5045911;28;20134;-76
2024/01/02 03:05:11;;;;;;;2.30;0.70;;;11.90;91.90;;;;;;5012754;28;20484;-76
2024/01/02 03:07:38;;;;;;;2.42;0.85;;;11.90;99.90;;;;;;5027442;28;20357;-75
2024/01/02 03:10:05;;;;;;;0.93;0.40;;;11.90;99.90;;;;;;5045866;28;20053;-75
2024/01/02 03:12:32;;;;;;;0.55;0.35;;;11.90;99.90;;;;;;5045452;28;20113;-76
2024/01/02 03:14:59;;;;;;;1.63;0.60;;;11.90;99.90;;;;;;5045275;28;20554;-76
2024/01/02 03:17:26;;;;;;;0.70;0.30;;;11.80;99.90;;;;;;5045434;28;20072;-75
2024/01/02 03:19:54;;;;;;;1.08;0.40;;;11.80;99.90;;;;;;5028361;28;20055;-76
2024/01/02 03:22:21;;;;;;;1.50;0.60;;;11.80;99.90;;;;;;5043343;28;20049;-75
2024/01/02 03:24:48;;;;;;;3.20;1.25;;;11.80;99.90;;;;;;5025171;28;20099;-76
2024/01/02 03:27:15;;;;;;;2.25;0.88;;;11.80;99.90;;;;;;5025124;28;20072;-76
2024/01/02 03:29:42;;;;;;;1.17;0.50;;;11.80;99.90;;;;;;5025175;28;20057;-76
2024/01/02 03:32:10;;;;;;;1.10;0.50;;;11.80;99.90;;;;;;4992403;28;20141;-76
2024/01/02 03:34:37;;;;;;;1.63;0.90;;;11.80;1.00;;;;;;5008647;28;20048;-76
2024/01/02 03:37:04;;;;;;;0.50;0.40;;;11.80;1.00;;;;;;5008264;28;20052;-76
2024/01/02 03:39:31;;;;;;;1.42;0.55;;;11.80;1.00;;;;;;5007516;28;20057;-76
2024/01/02 03:41:58;;;;;;;0.65;0.43;;;11.80;99.90;;;;;;5010867;28;20037;-75
2024/01/02 03:44:25;;;;;;;0.93;0.43;;;11.80;99.90;;;;;;5007122;28;20503;-75
2024/01/02 03:46:52;;;;;;;1.15;0.50;;;11.80;99.90;;;;;;5006864;28;20534;-75
2024/01/02 03:49:19;;;;;;;1.30;0.50;;;11.90;99.90;;;;;;5023718;28;20053;-75
2024/01/02 03:51:46;;;;;;;0.55;0.40;;;11.80;99.90;;;;;;5006195;28;20457;-76
2024/01/02 03:54:13;;;;;;;1.52;0.52;;;11.80;99.90;;;;;;5006189;28;20053;-76
2024/01/02 03:56:40;;;;;;;0.80;0.40;;;11.80;1.00;;;;;;5007877;28;20095;-75
2024/01/02 03:59:07;;;;;;;2.03;1.02;;;11.80;1.00;;;;;;4992032;28;20128;-75
2024/01/02 04:01:42;;;;;;;0.77;0.47;;;11.90;1.00;;;;;;5008596;28;20046;-76
2024/01/02 04:04:10;;;;;;;2.00;0.70;;;11.90;1.00;;;;;;5008546;28;20567;-77
2024/01/02 04:06:37;;;;;;;1.17;0.60;;;11.90;1.00;;;;;;5008018;28;20053;-76
2024/01/02 04:09:03;;;;;;;1.45;0.70;;;11.90;1.00;;;;;;4991741;28;20057;-75
2024/01/02 04:11:30;;;;;;;1.80;0.70;;;11.90;99.90;;;;;;5024573;28;20502;-76
2024/01/02 04:13:58;;;;;;;1.75;0.65;;;11.90;99.90;;;;;;5008203;28;20055;-76
2024/01/02 04:16:25;;;;;;;1.95;0.70;;;11.90;99.90;;;;;;4991724;28;20050;-76
2024/01/02 04:18:51;;;;;;;1.98;0.85;;;11.90;99.90;;;;;;4991481;28;20493;-76
2024/01/02 04:21:19;;;;;;;1.88;0.63;;;11.90;99.90;;;;;;4991483;28;20115;-76
2024/01/02 04:23:45;;;;;;;1.75;0.52;;;11.90;99.90;;;;;;5007650;28;20060;-76
2024/01/02 04:26:13;;;;;;;2.70;0.70;;;11.90;99.90;;;;;;5008458;28;20045;-76
2024/01/02 04:28:41;;;;;;;1.17;0.63;;;11.80;99.90;;;;;;5024105;28;20050;-76
2024/01/02 04:31:08;;;;;;;2.70;0.65;;;11.80;99.90;;;;;;4991997;28;20142;-76
2024/01/02 04:33:35;;;;;;;2.00;0.82;;;11.80;99.90;;;;;;5024504;28;20495;-76
2024/01/02 04:36:02;;;;;;;0.82;0.50;;;11.80;56.40;;;;;;5008317;28;20060;-76
2024/01/02 04:38:30;;;;;;;2.33;0.88;;;11.80;53.10;;;;;;5023859;28;20833;-76
2024/01/02 04:40:59;;;;;;;3.63;1.13;;;11.80;52.00;;;;;;5008822;28;20375;-76
2024/01/02 04:43:27;;;;;;;1.90;0.75;;;11.80;7.20;;;;;;5008065;28;20088;-76
2024/01/02 04:45:54;;;;;;;1.60;0.70;;;11.80;19.50;;;;;;5008435;28;20130;-76
2024/01/02 04:48:20;;;;;;;2.13;0.70;;;11.80;22.20;;;;;;5008621;28;20131;-76
2024/01/02 04:50:48;;;;;;;2.95;0.80;;;11.80;7.90;;;;;;4992329;28;20049;-76
2024/01/02 04:53:15;;;;;;;2.53;1.00;;;11.80;1.00;;;;;;5014759;28;20081;-76
2024/01/02 04:55:42;;;;;;;2.72;0.82;;;11.80;1.00;;;;;;5044799;28;20170;-76
2024/01/02 04:58:09;;;;;;;1.38;0.57;;;11.80;1.00;;;;;;5044419;28;20166;-76
2024/01/02 05:00:36;;;;;;;3.47;0.98;;;11.90;1.00;;;;;;5012359;28;20084;-76
2024/01/02 05:03:03;;;;;;;1.38;0.57;;;11.90;1.00;;;;;;5011456;28;20102;-76
2024/01/02 05:05:30;;;;;;;2.65;1.20;;;11.90;1.00;;;;;;5027729;28;20128;-76
2024/01/02 05:07:58;;;;;;;1.42;0.88;;;11.90;1.00;;;;;;5027147;28;20443;-76
2024/01/02 05:10:25;;;;;;;1.63;0.60;;;11.90;1.00;;;;;;5011962;28;20060;-75
2024/01/02 05:12:52;;;;;;;1.73;0.75;;;11.90;1.00;;;;;;5028222;28;20048;-76
2024/01/02 05:15:19;;;;;;;1.33;0.80;;;11.90;1.00;;;;;;5027510;28;20051;-76
2024/01/02 05:17:46;;;;;;;1.80;0.80;;;11.90;5.70;;;;;;5045284;28;20053;-75
2024/01/02 05:20:13;;;;;;;1.85;0.60;;;11.90;37.80;;;;;;5011292;28;20041;-76
2024/01/02 05:22:41;;;;;;;1.02;0.60;;;11.90;66.60;;;;;;5010578;28;20041;-76
2024/01/02 05:25:09;;;;;;;1.67;0.80;;;11.90;68.80;;;;;;5011606;28;20056;-76
2024/01/02 05:27:35;;;;;;;2.00;0.70;;;11.90;53.80;;;;;;5044245;28;20056;-76
2024/01/02 05:30:03;;;;;;;1.88;0.60;;;11.90;31.20;;;;;;5043323;28;20644;-76
2024/01/02 05:32:30;;;;;;;2.72;1.00;;;11.90;26.50;;;;;;5029710;28;20410;-76
2024/01/02 05:34:57;;;;;;;0.82;0.50;;;11.90;43.60;;;;;;5014649;28;20698;-76
2024/01/02 05:37:25;;;;;;;1.00;0.52;;;11.90;90.60;;;;;;5029933;28;20103;-76
2024/01/02 05:39:51;;;;;;;0.85;0.60;;;11.90;99.90;;;;;;5030673;28;20052;-76
2024/01/02 05:42:18;;;;;;;1.20;0.70;;;11.90;99.90;;;;;;5047534;28;20079;-76
2024/01/02 05:44:45;;;;;;;1.77;0.70;;;11.90;99.90;;;;;;5046464;28;20463;-76
2024/01/02 05:47:12;;;;;;;2.33;1.10;;;11.80;1.00;;;;;;5030421;28;20068;-75
2024/01/02 05:49:39;;;;;;;2.08;1.00;;;11.90;99.90;;;;;;5027431;28;20061;-76
2024/01/02 05:52:06;;;;;;;1.13;0.60;;;11.90;99.90;;;;;;5010467;28;20048;-76
2024/01/02 05:54:33;;;;;;;1.60;0.90;;;11.90;99.90;;;;;;5005458;28;20052;-76
2024/01/02 05:57:01;;;;;;;3.90;1.52;;;11.80;1.00;;;;;;5006341;28;20408;-76
2024/01/02 05:59:28;;;;;;;3.90;1.35;;;11.80;99.90;;;;;;5027982;28;20406;-76
2024/01/02 06:01:55;;;;;;;3.20;1.05;;;11.80;99.90;;;;;;5020998;28;20063;-77
2024/01/02 06:04:23;;;;;;;2.55;0.90;;;11.80;99.90;;;;;;5010195;28;20172;-78
2024/01/02 06:06:50;;;;;;;3.97;2.05;;;11.80;99.90;;;;;;5020584;28;20251;-77
2024/01/02 06:09:17;;;;;;;6.88;2.03;;;11.90;99.90;;;;;;5024134;28;20068;-74
2024/01/02 06:11:44;;;;;;;3.10;1.42;;;11.90;99.90;;;;;;5008418;28;20415;-76
2024/01/02 06:14:11;;;;;;;6.05;2.30;;;11.90;99.90;;;;;;5005481;28;20058;-75
2024/01/02 06:16:39;;;;;;;2.67;1.00;;;11.90;21.50;;;;;;5029096;28;20054;-75
2024/01/02 06:19:05;;;;;;;3.65;1.23;;;11.90;1.00;;;;;;4999829;28;20136;-75
2024/01/02 06:21:33;;;;;;;3.28;1.15;;;11.90;1.00;;;;;;5013027;28;20041;-76
2024/01/02 06:24:00;;;;;;;3.30;1.30;;;11.90;1.00;;;;;;5000766;28;20060;-76
2024/01/02 06:26:27;;;;;;;3.30;1.23;;;11.90;1.00;;;;;;5015564;28;20045;-75
2024/01/02 06:28:55;;;;;;;4.50;1.30;;;11.90;1.00;;;;;;4994409;28;20135;-76
2024/01/02 06:31:22;;;;;;;3.13;0.90;;;11.90;1.00;;;;;;5017348;28;20084;-75
2024/01/02 06:33:49;;;;;;;2.53;1.13;;;11.90;1.00;;;;;;5014470;28;20450;-76
2024/01/02 06:36:16;;;;;;;2.85;1.10;;;11.90;93.30;;;;;;4992118;28;20060;-75
2024/01/02 06:38:43;;;;;;;2.00;1.00;;;11.90;1.00;;;;;;5010844;28;20053;-75
2024/01/02 06:41:10;;;;;;;2.85;1.40;;;11.90;1.00;;;;;;5010318;28;20052;-75
2024/01/02 06:43:37;;;;;;;2.83;1.20;;;11.90;99.90;;;;;;5026942;28;20653;-75
2024/01/02 06:46:04;;;;;;;4.15;1.30;;;12.00;99.90;;;;;;5007467;28;20056;-76
2024/01/02 06:48:31;;;;;;;1.58;0.77;;;12.00;99.90;;;;;;5017386;28;20047;-79
2024/01/02 06:50:59;;;;;;;2.42;1.00;;;12.00;99.90;;;;;;4993487;28;20053;-80
2024/01/02 06:53:26;;;;;;;1.48;0.70;;;12.00;99.90;;;;;;5029032;28;20120;-80
2024/01/02 06:55:53;;;;;;;1.23;0.80;;;12.00;99.90;;;;;;5004232;28;20136;-80
2024/01/02 06:58:20;;;;;;;1.52;0.77;;;12.00;99.90;;;;;;4998771;28;20053;-80
2024/01/02 07:00:48;;;;;;;2.58;0.80;;;12.00;99.90;;;;;;4995696;28;20052;-80
2024/01/02 07:03:14;;;;;;;2.15;1.23;;;12.00;99.90;;;;;;5035457;28;20045;-79
2024/01/02 07:05:41;;;;;;;3.30;1.23;;;12.00;99.90;;;;;;5010566;28;20633;-79
2024/01/02 07:08:09;;;;;;;3.30;1.25;;;12.00;97.70;;;;;;5026682;28;20049;-79
2024/01/02 07:10:36;;;;;;;2.28;0.90;;;12.00;99.90;;;;;;5024476;28;20107;-78
2024/01/02 07:13:03;;;;;;;1.88;0.80;;;12.00;99.90;;;;;;5012745;28;20045;-75
2024/01/02 07:15:30;;;;;;;3.28;1.10;;;12.00;99.90;;;;;;4994192;28;20428;-79
2024/01/02 07:17:57;;;;;;;2.20;0.90;;;12.00;99.90;;;;;;4994988;28;20045;-75
2024/01/02 07:20:25;;;;;;;1.55;0.90;;;12.00;99.90;;;;;;5039758;28;20048;-76
2024/01/02 07:22:52;;;;;;;2.90;0.80;;;12.00;99.90;;;;;;5034748;28;20081;-77
2024/01/02 07:25:19;;;;;;;1.73;0.60;;;12.00;99.90;;;;;;5024418;28;20045;-78
2024/01/02 07:27:46;;;;;;;1.83;0.80;;;12.00;99.90;;;;;;5017782;28;20048;-76
2024/01/02 07:30:13;;;;;;;1.38;1.02;;;12.00;1.00;;;;;;5017409;28;20202;-76
2024/01/02 07:32:40;;;;;;;1.23;0.65;;;12.00;1.00;;;;;;5033709;28;20159;-76
2024/01/02 07:35:07;;;;;;;1.10;0.63;;;12.00;1.00;;;;;;5034069;28;20045;-75
2024/01/02 07:37:34;;;;;;;1.23;0.63;;;11.90;1.00;;;;;;4996374;28;20041;-76
2024/01/02 07:40:01;;;;;;;1.27;0.63;;;11.90;1.00;;;;;;5031734;28;20061;-76
2024/01/02 07:42:28;;;;;;;2.75;1.02;;;11.90;99.90;;;;;;4996370;28;20046;-76
2024/01/02 07:44:55;;;;;;;2.20;0.70;;;11.90;99.90;;;;;;5031350;28;20531;-76
2024/01/02 07:47:22;;;;;;;1.23;0.55;;;11.80;1.00;;;;;;5030995;28;20052;-76
2024/01/02 07:49:49;;;;;;;0.73;0.52;;;11.80;99.90;;;;;;5030292;28;20077;-76
2024/01/02 07:52:16;;;;;;;1.25;0.55;;;11.80;1.00;;;;;;5019982;28;20095;-76
2024/01/02 07:54:43;;;;;;;1.30;0.80;;;11.80;99.90;;;;;;4987033;28;20049;-76
2024/01/02 07:57:10;;;;;;;2.72;1.05;;;11.90;99.90;;;;;;4995370;28;20060;-76
2024/01/02 07:59:37;;;;;;;0.43;0.40;;;11.80;99.90;;;;;;5017781;28;20041;-76
2024/01/02 08:02:05;;;;;;;1.33;0.50;;;11.80;99.90;;;;;;5014809;28;20061;-77
2024/01/02 08:04:33;;;;;;;1.35;0.57;;;11.80;1.00;;;;;;5034682;28;20655;-76
2024/01/02 08:07:01;;;;;;;1.48;0.73;;;11.80;99.90;;;;;;5016065;28;20063;-76
2024/01/02 08:09:28;;;;;;;0.47;0.40;;;11.80;99.90;;;;;;5002241;28;20045;-76
2024/01/02 08:11:56;;;;;;;0.85;0.40;;;11.80;99.90;;;;;;5017121;28;20533;-76
2024/01/02 08:14:23;;;;;;;1.50;0.50;;;11.80;1.00;;;;;;5035479;28;20117;-76
2024/01/02 08:16:50;;;;;;;0.52;0.40;;;11.80;1.00;;;;;;5001411;28;20049;-76
2024/01/02 08:19:18;;;;;;;0.50;0.30;;;11.80;17.70;;;;;;5000899;28;20071;-76
2024/01/02 08:21:45;;;;;;;2.13;0.70;;;11.80;99.90;;;;;;5000324;28;20321;-77
2024/01/02 08:24:12;;;;;;;0.98;0.35;;;11.80;99.90;;;;;;5013793;28;20056;-75
2024/01/02 08:26:39;;;;;;;0.40;0.30;;;11.70;99.90;;;;;;5022762;28;20045;-76
2024/01/02 08:29:06;;;;;;;0.77;0.38;;;11.70;99.90;;;;;;4990983;28;20061;-76
2024/01/02 08:31:34;;;;;;;1.00;0.40;;;11.70;1.00;;;;;;5006561;28;20050;-75
2024/01/02 08:34:03;;;;;;;0.40;0.35;;;11.70;1.00;;;;;;5006331;28;20053;-75
2024/01/02 08:36:29;;;;;;;1.75;0.43;;;11.70;1.00;;;;;;5038525;28;20051;-76
2024/01/02 08:38:58;;;;;;;0.80;0.40;;;11.70;99.90;;;;;;5021766;28;20062;-76
2024/01/02 08:41:25;;;;;;;0.57;0.45;;;11.70;99.90;;;;;;5006624;28;20089;-76
2024/01/02 08:43:52;;;;;;;1.02;0.40;;;11.70;99.90;;;;;;5023181;28;20068;-75
2024/01/02 08:46:19;;;;;;;0.93;0.43;;;11.70;99.90;;;;;;5006525;28;20115;-75
2024/01/02 08:48:46;;;;;;;0.88;0.60;;;11.70;99.90;;;;;;4989742;28;20100;-76
2024/01/02 08:51:12;;;;;;;1.10;0.40;;;11.70;99.90;;;;;;4989019;28;20041;-76
2024/01/02 08:53:39;;;;;;;1.02;0.30;;;11.70;1.00;;;;;;5005512;28;20049;-76
2024/01/02 08:56:07;;;;;;;0.77;0.60;;;11.70;1.00;;;;;;4989834;28;20065;-76
2024/01/02 08:58:34;;;;;;;0.20;0.20;;;11.70;2.80;;;;;;4989504;28;20132;-75
2024/01/02 09:01:01;;;;;;;0.17;0.17;;;11.70;99.90;;;;;;5024972;28;20491;-76
2024/01/02 09:03:30;;;;;;;0.28;0.20;;;11.70;99.90;;;;;;5021550;28;20067;-75
2024/01/02 09:05:57;;;;;;;0.40;0.30;;;11.70;99.90;;;;;;5024221;28;20064;-75
2024/01/02 09:08:25;;;;;;;0.65;0.30;;;11.70;99.90;;;;;;5009302;28;20077;-76
2024/01/02 09:10:52;;;;;;;0.28;0.28;;;11.70;99.90;;;;;;5025927;28;20045;-75
2024/01/02 09:13:19;;;;;;;0.28;0.28;;;11.70;99.90;;;;;;5009365;28;20054;-76
2024/01/02 09:15:47;;;;;;;0.20;0.20;;;11.70;99.90;;;;;;5027634;28;20045;-75
2024/01/02 09:18:13;;;;;;;0.28;0.28;;;11.70;99.90;;;;;;5025607;28;20088;-76
2024/01/02 09:20:41;;;;;;;0.20;0.20;;;11.70;99.90;;;;;;5009198;28;20055;-76
2024/01/02 09:23:08;;;;;;;0.30;0.20;;;11.70;99.90;;;;;;5027372;28;20041;-76
2024/01/02 09:25:36;;;;;;;0.10;0.10;;;11.70;99.90;;;;;;5026502;28;20403;-76
2024/01/02 09:28:04;;;;;;;0.17;0.17;;;11.70;1.00;;;;;;5026371;28;20045;-75
2024/01/02 09:30:31;;;;;;;0.30;0.10;;;11.70;1.00;;;;;;5045684;28;20076;-76
2024/01/02 09:32:58;;;;;;;0.10;0.10;;;11.70;1.00;;;;;;5044979;28;20041;-76
2024/01/02 09:35:26;;;;;;;0.22;0.20;;;11.70;1.00;;;;;;5028998;28;20068;-76
2024/01/02 09:37:53;;;;;;;1.02;0.38;;;11.60;1.00;;;;;;5025187;28;20499;-76
2024/01/02 09:40:58;;;;;;;0.30;0.30;;;11.70;30.40;;;;;;5025917;28;20053;-76
2024/01/02 09:43:45;;;;;;;0.20;0.20;;;11.60;99.90;;;;;;5047316;28;20130;-83
2024/01/02 09:46:40;;;;;;;0.13;0.13;;;11.70;99.90;;;;;;5049267;28;20462;-85
2024/01/02 09:49:21;;;;;;;0.20;0.20;;;11.70;99.90;;;;;;5044779;28;20410;-79
2024/01/02 09:51:58;;;;;;;0.13;0.10;;;11.80;99.90;;;;;;5015423;28;20050;-84
2024/01/02 09:54:42;;;;;;;0.20;0.20;;;11.90;99.90;;;;;;5045832;28;20048;-84
2024/01/02 09:57:16;;;;;;;0.15;0.15;;;12.00;99.90;;;;;;5034997;28;20478;-85
2024/01/02 10:00:11;;;;;;;0.10;0.10;;;12.00;99.90;;;;;;5041077;28;20486;-83
2024/01/02 10:02:47;;;;;;;0.22;0.20;;;12.10;99.90;;;;;;5033252;28;20495;-84
2024/01/02 10:05:36;;;;;;;0.10;0.10;;;12.20;99.90;;;;;;5045259;28;20045;-86
2024/01/02 10:08:16;;;;;;;0.20;0.20;;;12.30;99.90;;;;;;5032661;28;20057;-84
2024/01/02 10:10:53;;;;;;;0.10;0.10;;;12.40;99.90;;;;;;5038615;28;20079;-84
2024/01/02 10:13:31;;;;;;;0.20;0.20;;;12.40;99.90;;;;;;5025131;28;20513;-84
2024/01/02 10:16:23;;;;;;;0.10;0.10;;;12.50;99.90;;;;;;5022768;28;20038;-85
2024/01/02 10:18:53;;;;;;;0.25;0.10;;;12.50;99.90;;;;;;5039764;28;20096;-85
2024/01/02 10:21:31;;;;;;;0.20;0.20;;;12.50;99.90;;;;;;5039079;28;20679;-84
2024/01/02 10:24:11;;;;;;;0.35;0.20;;;12.60;99.90;;;;;;5004165;28;20087;-85
2024/01/02 10:26:44;;;;;;;1.73;0.40;;;12.60;99.90;;;;;;5028585;28;20049;-85
2024/01/02 10:29:16;;;;;;;1.65;0.40;;;12.60;99.90;;;;;;5014394;28;20266;-86
2024/01/02 10:31:56;;;;;;;0.60;0.50;;;12.60;99.90;;;;;;5031672;28;20079;-83
2024/01/02 10:34:39;;;;;;;0.82;0.35;;;12.70;75.20;;;;;;5008603;28;20056;-83
2024/01/02 10:37:12;;;;;;;0.70;0.30;;;12.70;1.00;;;;;;5045918;28;20402;-87
2024/01/02 10:40:07;;;;;;;0.55;0.30;;;12.80;1.00;;;;;;5038581;28;20054;-91
2024/01/02 10:43:13;;;;;;;0.75;0.40;;;12.80;99.90;;;;;;5010713;28;20230;-89
2024/01/02 10:45:53;;;;;;;1.30;0.77;;;12.80;1.00;;;;;;5010564;28;20053;-88
2024/01/02 10:48:47;;;;;;;1.17;0.60;;;12.80;99.90;;;;;;5012437;28;20181;-89
2024/01/02 10:51:25;;;;;;;3.30;0.65;;;12.80;1.00;;;;;;5029268;28;20085;-88
2024/01/02 10:54:03;;;;;;;1.85;0.93;;;12.80;99.90;;;;;;5006003;28;20077;-87
2024/01/02 10:56:31;;;;;;;2.05;0.73;;;12.80;1.00;;;;;;5037919;28;20102;-86
2024/01/02 10:59:23;;;;;;;1.15;0.45;;;12.80;99.90;;;;;;5053371;28;20084;-90
2024/01/02 11:02:15;;;;;;;3.25;0.80;;;12.80;99.90;;;;;;5016206;28;20049;-88
2024/01/02 11:05:16;;;;;;;1.60;1.02;;;12.80;99.90;;;;;;5028055;28;20041;-90
2024/01/02 11:07:56;;;;;;;2.95;1.02;;;12.70;99.90;;;;;;5045583;28;20049;-89
2024/01/02 11:10:24;;;;;;;3.10;1.35;;;12.80;99.90;;;;;;5049627;28;20052;-87
2024/01/02 11:12:54;;;;;;;2.90;1.00;;;12.80;99.90;;;;;;5000686;28;20069;-85
2024/01/02 11:15:24;;;;;;;1.88;0.98;;;12.70;1.00;;;;;;4999190;28;20060;-87
2024/01/02 11:17:55;;;;;;;2.05;0.88;;;12.70;1.00;;;;;;5015970;28;20049;-88
2024/01/02 11:20:30;;;;;;;2.72;1.00;;;12.70;1.00;;;;;;5023949;28;20052;-88
2024/01/02 11:23:09;;;;;;;3.10;0.70;;;12.70;73.10;;;;;;5026493;28;20554;-88
2024/01/02 11:25:41;;;;;;;3.08;0.88;;;12.70;1.00;;;;;;5003643;28;20095;-89
2024/01/02 11:28:13;;;;;;;2.03;0.70;;;12.70;99.90;;;;;;5014616;28;20049;-87
2024/01/02 11:30:48;;;;;;;2.00;0.60;;;12.70;99.90;;;;;;5009558;28;20132;-90
2024/01/02 11:33:32;;;;;;;1.48;0.65;;;12.70;99.90;;;;;;5018339;28;20057;-91
2024/01/02 11:36:04;;;;;;;1.88;0.55;;;12.60;99.90;;;;;;5036754;28;20524;-88
2024/01/02 11:38:33;;;;;;;1.15;0.73;;;12.60;99.90;;;;;;5052405;28;20052;-88
2024/01/02 11:41:22;;;;;;;1.20;0.50;;;12.60;99.90;;;;;;5018740;28;20067;-88
2024/01/02 11:44:00;;;;;;;0.90;0.63;;;12.60;99.90;;;;;;5030442;28;20060;-87
2024/01/02 11:46:27;;;;;;;0.43;0.30;;;12.60;99.90;;;;;;5014655;28;20069;-89
2024/01/02 11:49:09;;;;;;;1.60;0.50;;;12.60;99.90;;;;;;5024282;28;20528;-87
2024/01/02 11:51:40;;;;;;;0.50;0.30;;;12.60;99.90;;;;;;5034414;28;20063;-88
2024/01/02 11:54:18;;;;;;;1.05;0.30;;;12.60;99.90;;;;;;5046145;28;20141;-86
2024/01/02 11:56:48;;;;;;;0.95;0.30;;;12.60;99.90;;;;;;5034989;28;20523;-85
2024/01/02 11:59:49;;;;;;;0.45;0.30;;;12.60;99.90;;;;;;5021658;28;20052;-88
2024/01/02 12:02:26;;;;;;;0.55;0.20;;;12.50;99.90;;;;;;5017740;28;20053;-87
2024/01/02 12:05:38;;;;;;;0.25;0.20;;;12.50;99.90;;;;;;5037202;28;20107;-88
2024/01/02 12:08:10;;;;;;;0.10;0.10;;;12.50;99.90;;;;;;5036496;28;20055;-84
2024/01/02 12:10:48;;;;;;;0.25;0.20;;;12.50;99.90;;;;;;5049065;28;20159;-87
2024/01/02 12:13:19;;;;;;;0.30;0.20;;;12.50;99.90;;;;;;5031967;28;20331;-88
2024/01/02 12:15:53;;;;;;;0.20;0.20;;;12.50;99.90;;;;;;5042574;28;20072;-88
2024/01/02 12:18:22;;;;;;;0.20;0.20;;;12.60;99.90;;;;;;5043423;28;20049;-86
2024/01/02 12:20:57;;;;;;;0.43;0.20;;;12.60;99.90;;;;;;5018464;28;20626;-86
2024/01/02 12:23:24;;;;;;;0.38;0.20;;;12.60;99.90;;;;;;4999100;28;20048;-88
2024/01/02 12:25:55;;;;;;;0.20;0.20;;;12.70;99.90;;;;;;5020993;28;20041;-85
2024/01/02 12:28:25;;;;;;;0.28;0.20;;;12.70;99.90;;;;;;5005064;28;20207;-85
2024/01/02 12:31:14;;;;;;;0.35;0.30;;;12.70;99.90;;;;;;5009089;28;20095;-84
2024/01/02 12:33:48;;;;;;;0.35;0.20;;;12.70;99.90;;;;;;5023286;28;20052;-84
2024/01/02 12:36:37;;;;;;;0.15;0.15;;;12.80;99.90;;;;;;5018056;28;20053;-84
2024/01/02 12:39:05;;;;;;;0.30;0.30;;;12.80;99.90;;;;;;5023806;28;20068;-84
2024/01/02 12:41:38;;;;;;;0.10;0.10;;;12.80;99.90;;;;;;5021831;28;20048;-85
2024/01/02 12:44:06;;;;;;;0.20;0.20;;;12.80;99.90;;;;;;5029025;28;20053;-87
2024/01/02 12:46:39;;;;;;;0.45;0.35;;;12.90;99.90;;;;;;5011654;28;20414;-85
2024/01/02 12:49:07;;;;;;;0.50;0.20;;;12.90;99.90;;;;;;5038878;28;20104;-83
2024/01/02 12:51:38;;;;;;;0.20;0.20;;;12.90;99.90;;;;;;5038425;28;20057;-84
2024/01/02 12:54:08;;;;;;;0.40;0.30;;;12.90;99.90;;;;;;5007411;28;20049;-83
2024/01/02 12:56:39;;;;;;;1.35;0.40;;;12.90;99.90;;;;;;5048056;28;20214;-83
2024/01/02 12:59:07;;;;;;;0.65;0.20;;;12.90;99.90;;;;;;4999883;28;20053;-82
2024/01/02 13:01:36;;;;;;;0.60;0.20;;;12.90;99.90;;;;;;5007435;28;20046;-89
2024/01/02 13:04:04;;;;;;;0.75;0.25;;;12.90;99.90;;;;;;5038549;28;20063;-86